sensor_id;sensor_type;location;lat;lon;timestamp;P1;durP1;ratioP1;P2;durP2;ratioP2
32216;SDS011;67098;51.140;4.088;2023-03-17T00:00:45;6.85;;;1.85;;
32216;SDS011;67098;51.140;4.088;2023-03-17T00:03:24;3.45;;;1.70;;
32216;SDS011;67098;51.140;4.088;2023-03-17T00:10:48;4.22;;;1.70;;
32216;SDS011;67098;51.140;4.088;2023-03-17T00:13:14;4.35;;;1.73;;
32216;SDS011;67098;51.140;4.088;2023-03-17T00:15:40;4.30;;;1.65;;
32216;SDS011;67098;51.140;4.088;2023-03-17T00:18:10;3.15;;;1.50;;
32216;SDS011;67098;51.140;4.088;2023-03-17T00:20:39;2.75;;;1.50;;
32216;SDS011;67098;51.140;4.088;2023-03-17T00:23:04;3.83;;;1.50;;
32216;SDS011;67098;51.140;4.088;2023-03-17T00:25:35;2.33;;;1.60;;
32216;SDS011;67098;51.140;4.088;2023-03-17T00:28:01;3.20;;;1.92;;
32216;SDS011;67098;51.140;4.088;2023-03-17T00:30:28;5.30;;;1.60;;
32216;SDS011;67098;51.140;4.088;2023-03-17T00:32:55;1.77;;;1.23;;
32216;SDS011;67098;51.140;4.088;2023-03-17T00:35:23;4.45;;;1.70;;
32216;SDS011;67098;51.140;4.088;2023-03-17T00:37:51;3.92;;;1.50;;
32216;SDS011;67098;51.140;4.088;2023-03-17T00:40:20;3.20;;;1.33;;
32216;SDS011;67098;51.140;4.088;2023-03-17T00:42:48;3.03;;;1.50;;
32216;SDS011;67098;51.140;4.088;2023-03-17T00:45:15;4.38;;;1.75;;
32216;SDS011;67098;51.140;4.088;2023-03-17T00:47:42;5.10;;;1.80;;
32216;SDS011;67098;51.140;4.088;2023-03-17T00:50:10;5.53;;;1.80;;
32216;SDS011;67098;51.140;4.088;2023-03-17T00:52:38;4.03;;;1.73;;
32216;SDS011;67098;51.140;4.088;2023-03-17T00:55:05;6.53;;;1.83;;
32216;SDS011;67098;51.140;4.088;2023-03-17T00:57:32;5.47;;;1.52;;
32216;SDS011;67098;51.140;4.088;2023-03-17T00:59:59;7.00;;;1.55;;
32216;SDS011;67098;51.140;4.088;2023-03-17T01:02:25;3.58;;;1.83;;
32216;SDS011;67098;51.140;4.088;2023-03-17T01:04:51;3.33;;;1.42;;
32216;SDS011;67098;51.140;4.088;2023-03-17T01:07:17;4.68;;;1.63;;
32216;SDS011;67098;51.140;4.088;2023-03-17T01:09:43;2.10;;;1.60;;
32216;SDS011;67098;51.140;4.088;2023-03-17T01:12:10;3.10;;;1.65;;
32216;SDS011;67098;51.140;4.088;2023-03-17T01:14:37;4.72;;;1.60;;
32216;SDS011;67098;51.140;4.088;2023-03-17T01:17:07;2.83;;;1.60;;
32216;SDS011;67098;51.140;4.088;2023-03-17T01:19:39;3.25;;;1.88;;
32216;SDS011;67098;51.140;4.088;2023-03-17T01:22:05;3.50;;;1.85;;
32216;SDS011;67098;51.140;4.088;2023-03-17T01:24:30;3.30;;;1.73;;
32216;SDS011;67098;51.140;4.088;2023-03-17T01:26:57;3.25;;;1.58;;
32216;SDS011;67098;51.140;4.088;2023-03-17T01:29:22;7.03;;;1.60;;
32216;SDS011;67098;51.140;4.088;2023-03-17T01:31:49;8.25;;;2.22;;
32216;SDS011;67098;51.140;4.088;2023-03-17T01:34:14;4.22;;;1.60;;
32216;SDS011;67098;51.140;4.088;2023-03-17T01:36:40;3.67;;;1.50;;
32216;SDS011;67098;51.140;4.088;2023-03-17T01:39:07;3.33;;;1.70;;
32216;SDS011;67098;51.140;4.088;2023-03-17T01:41:33;4.13;;;1.65;;
32216;SDS011;67098;51.140;4.088;2023-03-17T01:44:00;3.15;;;1.55;;
32216;SDS011;67098;51.140;4.088;2023-03-17T01:46:30;5.38;;;1.77;;
32216;SDS011;67098;51.140;4.088;2023-03-17T01:54:08;3.58;;;1.75;;
32216;SDS011;67098;51.140;4.088;2023-03-17T01:56:39;4.97;;;1.55;;
32216;SDS011;67098;51.140;4.088;2023-03-17T01:59:08;5.35;;;1.90;;
32216;SDS011;67098;51.140;4.088;2023-03-17T02:01:40;5.95;;;1.80;;
32216;SDS011;67098;51.140;4.088;2023-03-17T02:04:09;3.80;;;1.60;;
32216;SDS011;67098;51.140;4.088;2023-03-17T02:06:35;4.93;;;1.65;;
32216;SDS011;67098;51.140;4.088;2023-03-17T02:09:02;3.25;;;1.77;;
32216;SDS011;67098;51.140;4.088;2023-03-17T02:11:28;4.63;;;1.80;;
32216;SDS011;67098;51.140;4.088;2023-03-17T02:13:54;5.57;;;1.60;;
32216;SDS011;67098;51.140;4.088;2023-03-17T02:16:20;3.45;;;1.70;;
32216;SDS011;67098;51.140;4.088;2023-03-17T02:18:46;4.68;;;1.45;;
32216;SDS011;67098;51.140;4.088;2023-03-17T02:23:49;2.50;;;1.52;;
32216;SDS011;67098;51.140;4.088;2023-03-17T02:26:15;2.13;;;1.50;;
32216;SDS011;67098;51.140;4.088;2023-03-17T02:28:42;5.57;;;1.50;;
32216;SDS011;67098;51.140;4.088;2023-03-17T02:31:10;4.95;;;1.98;;
32216;SDS011;67098;51.140;4.088;2023-03-17T02:33:36;3.08;;;1.20;;
32216;SDS011;67098;51.140;4.088;2023-03-17T02:36:02;2.65;;;1.48;;
32216;SDS011;67098;51.140;4.088;2023-03-17T02:38:28;4.10;;;1.52;;
32216;SDS011;67098;51.140;4.088;2023-03-17T02:40:54;2.40;;;1.40;;
32216;SDS011;67098;51.140;4.088;2023-03-17T02:43:20;4.95;;;2.05;;
32216;SDS011;67098;51.140;4.088;2023-03-17T02:45:46;4.10;;;1.77;;
32216;SDS011;67098;51.140;4.088;2023-03-17T02:48:11;4.43;;;1.60;;
32216;SDS011;67098;51.140;4.088;2023-03-17T02:50:38;3.45;;;1.70;;
32216;SDS011;67098;51.140;4.088;2023-03-17T02:53:03;4.18;;;1.67;;
32216;SDS011;67098;51.140;4.088;2023-03-17T02:55:29;3.00;;;1.63;;
32216;SDS011;67098;51.140;4.088;2023-03-17T02:57:55;3.67;;;1.65;;
32216;SDS011;67098;51.140;4.088;2023-03-17T03:00:22;5.82;;;1.90;;
32216;SDS011;67098;51.140;4.088;2023-03-17T03:02:48;5.28;;;1.92;;
32216;SDS011;67098;51.140;4.088;2023-03-17T03:05:13;3.08;;;1.80;;
32216;SDS011;67098;51.140;4.088;2023-03-17T03:07:39;2.80;;;1.60;;
32216;SDS011;67098;51.140;4.088;2023-03-17T03:10:05;2.97;;;1.50;;
32216;SDS011;67098;51.140;4.088;2023-03-17T03:12:31;4.22;;;1.63;;
32216;SDS011;67098;51.140;4.088;2023-03-17T03:14:57;3.65;;;1.52;;
32216;SDS011;67098;51.140;4.088;2023-03-17T03:17:22;8.30;;;1.92;;
32216;SDS011;67098;51.140;4.088;2023-03-17T03:19:48;4.65;;;2.10;;
32216;SDS011;67098;51.140;4.088;2023-03-17T03:22:14;4.65;;;1.90;;
32216;SDS011;67098;51.140;4.088;2023-03-17T03:24:40;5.07;;;1.83;;
32216;SDS011;67098;51.140;4.088;2023-03-17T03:27:06;6.00;;;1.88;;
32216;SDS011;67098;51.140;4.088;2023-03-17T03:29:32;3.42;;;1.83;;
32216;SDS011;67098;51.140;4.088;2023-03-17T03:31:58;4.03;;;1.67;;
32216;SDS011;67098;51.140;4.088;2023-03-17T03:34:23;3.30;;;1.73;;
32216;SDS011;67098;51.140;4.088;2023-03-17T03:36:49;6.38;;;1.98;;
32216;SDS011;67098;51.140;4.088;2023-03-17T03:39:15;3.03;;;1.80;;
32216;SDS011;67098;51.140;4.088;2023-03-17T03:41:41;4.88;;;1.83;;
32216;SDS011;67098;51.140;4.088;2023-03-17T03:44:06;4.93;;;1.65;;
32216;SDS011;67098;51.140;4.088;2023-03-17T03:46:32;6.53;;;2.60;;
32216;SDS011;67098;51.140;4.088;2023-03-17T03:48:57;5.75;;;2.08;;
32216;SDS011;67098;51.140;4.088;2023-03-17T03:51:23;3.53;;;2.08;;
32216;SDS011;67098;51.140;4.088;2023-03-17T03:53:49;4.47;;;1.70;;
32216;SDS011;67098;51.140;4.088;2023-03-17T03:56:14;6.78;;;1.90;;
32216;SDS011;67098;51.140;4.088;2023-03-17T03:58:41;3.47;;;1.65;;
32216;SDS011;67098;51.140;4.088;2023-03-17T04:01:07;5.95;;;2.30;;
32216;SDS011;67098;51.140;4.088;2023-03-17T04:03:36;4.30;;;2.35;;
32216;SDS011;67098;51.140;4.088;2023-03-17T04:06:02;4.40;;;2.00;;
32216;SDS011;67098;51.140;4.088;2023-03-17T04:08:29;4.95;;;2.33;;
32216;SDS011;67098;51.140;4.088;2023-03-17T04:10:55;3.38;;;2.03;;
32216;SDS011;67098;51.140;4.088;2023-03-17T04:13:21;4.80;;;2.10;;
32216;SDS011;67098;51.140;4.088;2023-03-17T04:15:47;7.65;;;2.10;;
32216;SDS011;67098;51.140;4.088;2023-03-17T04:18:12;4.80;;;2.10;;
32216;SDS011;67098;51.140;4.088;2023-03-17T04:20:38;2.55;;;1.65;;
32216;SDS011;67098;51.140;4.088;2023-03-17T04:23:03;5.07;;;2.13;;
32216;SDS011;67098;51.140;4.088;2023-03-17T04:25:30;3.30;;;1.90;;
32216;SDS011;67098;51.140;4.088;2023-03-17T04:27:56;5.45;;;2.10;;
32216;SDS011;67098;51.140;4.088;2023-03-17T04:30:22;6.03;;;2.47;;
32216;SDS011;67098;51.140;4.088;2023-03-17T04:32:47;3.90;;;1.95;;
32216;SDS011;67098;51.140;4.088;2023-03-17T04:35:14;4.03;;;2.00;;
32216;SDS011;67098;51.140;4.088;2023-03-17T04:37:41;5.18;;;2.20;;
32216;SDS011;67098;51.140;4.088;2023-03-17T04:40:07;5.00;;;2.10;;
32216;SDS011;67098;51.140;4.088;2023-03-17T04:42:35;6.05;;;1.90;;
32216;SDS011;67098;51.140;4.088;2023-03-17T04:45:02;4.38;;;2.10;;
32216;SDS011;67098;51.140;4.088;2023-03-17T04:47:28;4.38;;;2.22;;
32216;SDS011;67098;51.140;4.088;2023-03-17T04:49:54;5.50;;;2.35;;
32216;SDS011;67098;51.140;4.088;2023-03-17T04:52:20;5.55;;;2.45;;
32216;SDS011;67098;51.140;4.088;2023-03-17T04:54:45;5.68;;;1.85;;
32216;SDS011;67098;51.140;4.088;2023-03-17T04:57:11;3.72;;;1.85;;
32216;SDS011;67098;51.140;4.088;2023-03-17T04:59:36;5.15;;;2.20;;
32216;SDS011;67098;51.140;4.088;2023-03-17T05:02:02;4.97;;;2.17;;
32216;SDS011;67098;51.140;4.088;2023-03-17T05:04:28;6.18;;;2.15;;
32216;SDS011;67098;51.140;4.088;2023-03-17T05:06:53;6.38;;;2.60;;
32216;SDS011;67098;51.140;4.088;2023-03-17T05:09:22;4.25;;;2.00;;
32216;SDS011;67098;51.140;4.088;2023-03-17T05:11:48;4.25;;;2.10;;
32216;SDS011;67098;51.140;4.088;2023-03-17T05:14:15;5.38;;;2.60;;
32216;SDS011;67098;51.140;4.088;2023-03-17T05:16:41;5.95;;;2.78;;
32216;SDS011;67098;51.140;4.088;2023-03-17T05:19:06;4.10;;;2.50;;
32216;SDS011;67098;51.140;4.088;2023-03-17T05:21:32;4.78;;;2.20;;
32216;SDS011;67098;51.140;4.088;2023-03-17T05:23:58;6.10;;;2.97;;
32216;SDS011;67098;51.140;4.088;2023-03-17T05:26:24;8.73;;;2.92;;
32216;SDS011;67098;51.140;4.088;2023-03-17T05:28:50;6.75;;;2.75;;
32216;SDS011;67098;51.140;4.088;2023-03-17T05:31:16;5.50;;;2.35;;
32216;SDS011;67098;51.140;4.088;2023-03-17T05:33:43;9.70;;;2.42;;
32216;SDS011;67098;51.140;4.088;2023-03-17T05:36:10;6.53;;;2.25;;
32216;SDS011;67098;51.140;4.088;2023-03-17T05:38:36;5.65;;;2.45;;
32216;SDS011;67098;51.140;4.088;2023-03-17T05:41:02;3.85;;;2.15;;
32216;SDS011;67098;51.140;4.088;2023-03-17T05:43:28;9.38;;;2.45;;
32216;SDS011;67098;51.140;4.088;2023-03-17T05:45:54;6.90;;;3.45;;
32216;SDS011;67098;51.140;4.088;2023-03-17T05:48:20;8.57;;;2.92;;
32216;SDS011;67098;51.140;4.088;2023-03-17T05:50:46;9.18;;;3.38;;
32216;SDS011;67098;51.140;4.088;2023-03-17T05:53:12;6.97;;;2.72;;
32216;SDS011;67098;51.140;4.088;2023-03-17T05:55:38;7.75;;;2.50;;
32216;SDS011;67098;51.140;4.088;2023-03-17T05:58:04;8.32;;;2.85;;
32216;SDS011;67098;51.140;4.088;2023-03-17T06:00:30;5.95;;;2.97;;
32216;SDS011;67098;51.140;4.088;2023-03-17T06:02:56;5.78;;;2.33;;
32216;SDS011;67098;51.140;4.088;2023-03-17T06:05:22;6.97;;;3.15;;
32216;SDS011;67098;51.140;4.088;2023-03-17T06:07:48;8.93;;;3.08;;
32216;SDS011;67098;51.140;4.088;2023-03-17T06:10:13;8.30;;;3.28;;
32216;SDS011;67098;51.140;4.088;2023-03-17T06:12:39;8.50;;;2.70;;
32216;SDS011;67098;51.140;4.088;2023-03-17T06:15:05;7.95;;;3.10;;
32216;SDS011;67098;51.140;4.088;2023-03-17T06:17:33;7.28;;;2.95;;
32216;SDS011;67098;51.140;4.088;2023-03-17T06:19:59;10.30;;;2.80;;
32216;SDS011;67098;51.140;4.088;2023-03-17T06:22:25;6.45;;;2.80;;
32216;SDS011;67098;51.140;4.088;2023-03-17T06:24:51;6.30;;;2.65;;
32216;SDS011;67098;51.140;4.088;2023-03-17T06:27:17;8.05;;;3.10;;
32216;SDS011;67098;51.140;4.088;2023-03-17T06:29:43;6.13;;;2.60;;
32216;SDS011;67098;51.140;4.088;2023-03-17T06:32:09;7.07;;;2.55;;
32216;SDS011;67098;51.140;4.088;2023-03-17T06:34:35;6.10;;;2.30;;
32216;SDS011;67098;51.140;4.088;2023-03-17T06:37:01;9.25;;;2.72;;
32216;SDS011;67098;51.140;4.088;2023-03-17T06:39:26;7.63;;;2.35;;
32216;SDS011;67098;51.140;4.088;2023-03-17T06:41:52;6.38;;;2.50;;
32216;SDS011;67098;51.140;4.088;2023-03-17T06:44:18;6.30;;;2.15;;
32216;SDS011;67098;51.140;4.088;2023-03-17T06:46:44;4.75;;;2.10;;
32216;SDS011;67098;51.140;4.088;2023-03-17T06:49:09;4.30;;;2.20;;
32216;SDS011;67098;51.140;4.088;2023-03-17T06:51:37;8.50;;;2.50;;
32216;SDS011;67098;51.140;4.088;2023-03-17T06:54:03;8.38;;;2.78;;
32216;SDS011;67098;51.140;4.088;2023-03-17T06:56:29;5.70;;;2.60;;
32216;SDS011;67098;51.140;4.088;2023-03-17T06:58:54;5.82;;;2.20;;
32216;SDS011;67098;51.140;4.088;2023-03-17T07:01:20;6.72;;;2.53;;
32216;SDS011;67098;51.140;4.088;2023-03-17T07:03:46;10.88;;;2.50;;
32216;SDS011;67098;51.140;4.088;2023-03-17T07:06:12;6.90;;;2.40;;
32216;SDS011;67098;51.140;4.088;2023-03-17T07:08:38;5.47;;;2.35;;
32216;SDS011;67098;51.140;4.088;2023-03-17T07:11:05;6.22;;;2.55;;
32216;SDS011;67098;51.140;4.088;2023-03-17T07:13:31;8.27;;;2.10;;
32216;SDS011;67098;51.140;4.088;2023-03-17T07:16:03;5.78;;;3.20;;
32216;SDS011;67098;51.140;4.088;2023-03-17T07:18:29;5.97;;;2.70;;
32216;SDS011;67098;51.140;4.088;2023-03-17T07:20:56;4.55;;;2.75;;
32216;SDS011;67098;51.140;4.088;2023-03-17T07:23:22;5.75;;;2.63;;
32216;SDS011;67098;51.140;4.088;2023-03-17T07:25:48;5.63;;;2.50;;
32216;SDS011;67098;51.140;4.088;2023-03-17T07:28:15;7.53;;;3.55;;
32216;SDS011;67098;51.140;4.088;2023-03-17T07:30:41;12.18;;;3.05;;
32216;SDS011;67098;51.140;4.088;2023-03-17T07:33:14;8.63;;;2.90;;
32216;SDS011;67098;51.140;4.088;2023-03-17T07:35:41;6.63;;;2.65;;
32216;SDS011;67098;51.140;4.088;2023-03-17T07:38:08;6.20;;;2.65;;
32216;SDS011;67098;51.140;4.088;2023-03-17T07:40:34;10.32;;;2.92;;
32216;SDS011;67098;51.140;4.088;2023-03-17T07:43:00;6.85;;;2.65;;
32216;SDS011;67098;51.140;4.088;2023-03-17T07:45:26;6.40;;;2.78;;
32216;SDS011;67098;51.140;4.088;2023-03-17T07:47:52;4.82;;;2.63;;
32216;SDS011;67098;51.140;4.088;2023-03-17T07:50:18;6.22;;;2.53;;
32216;SDS011;67098;51.140;4.088;2023-03-17T07:52:44;8.18;;;2.28;;
32216;SDS011;67098;51.140;4.088;2023-03-17T07:55:10;5.22;;;2.50;;
32216;SDS011;67098;51.140;4.088;2023-03-17T07:57:37;5.22;;;2.47;;
32216;SDS011;67098;51.140;4.088;2023-03-17T08:00:04;10.23;;;2.40;;
32216;SDS011;67098;51.140;4.088;2023-03-17T08:02:33;6.97;;;2.97;;
32216;SDS011;67098;51.140;4.088;2023-03-17T08:05:00;5.43;;;2.47;;
32216;SDS011;67098;51.140;4.088;2023-03-17T08:07:27;6.70;;;2.67;;
32216;SDS011;67098;51.140;4.088;2023-03-17T08:09:55;6.15;;;2.28;;
32216;SDS011;67098;51.140;4.088;2023-03-17T08:12:22;6.20;;;2.95;;
32216;SDS011;67098;51.140;4.088;2023-03-17T08:14:48;7.68;;;3.00;;
32216;SDS011;67098;51.140;4.088;2023-03-17T08:17:13;9.20;;;3.03;;
32216;SDS011;67098;51.140;4.088;2023-03-17T08:19:39;6.60;;;2.88;;
32216;SDS011;67098;51.140;4.088;2023-03-17T08:22:05;10.27;;;3.13;;
32216;SDS011;67098;51.140;4.088;2023-03-17T08:24:31;11.68;;;3.33;;
32216;SDS011;67098;51.140;4.088;2023-03-17T08:26:57;8.80;;;3.08;;
32216;SDS011;67098;51.140;4.088;2023-03-17T08:29:22;8.75;;;3.20;;
32216;SDS011;67098;51.140;4.088;2023-03-17T08:31:49;7.03;;;2.90;;
32216;SDS011;67098;51.140;4.088;2023-03-17T08:34:15;10.05;;;3.33;;
32216;SDS011;67098;51.140;4.088;2023-03-17T08:36:41;11.77;;;3.20;;
32216;SDS011;67098;51.140;4.088;2023-03-17T08:39:06;6.45;;;3.10;;
32216;SDS011;67098;51.140;4.088;2023-03-17T08:41:34;8.77;;;3.30;;
32216;SDS011;67098;51.140;4.088;2023-03-17T08:44:01;6.90;;;3.00;;
32216;SDS011;67098;51.140;4.088;2023-03-17T08:46:29;10.55;;;3.08;;
32216;SDS011;67098;51.140;4.088;2023-03-17T08:48:55;8.20;;;3.15;;
32216;SDS011;67098;51.140;4.088;2023-03-17T08:51:23;9.85;;;2.90;;
32216;SDS011;67098;51.140;4.088;2023-03-17T08:53:51;10.13;;;3.33;;
32216;SDS011;67098;51.140;4.088;2023-03-17T08:56:18;8.02;;;3.47;;
32216;SDS011;67098;51.140;4.088;2023-03-17T08:58:43;8.55;;;3.15;;
32216;SDS011;67098;51.140;4.088;2023-03-17T09:01:10;11.50;;;3.15;;
32216;SDS011;67098;51.140;4.088;2023-03-17T09:03:36;7.22;;;2.97;;
32216;SDS011;67098;51.140;4.088;2023-03-17T09:06:04;8.70;;;2.90;;
32216;SDS011;67098;51.140;4.088;2023-03-17T09:08:32;9.13;;;3.20;;
32216;SDS011;67098;51.140;4.088;2023-03-17T09:10:59;8.80;;;3.05;;
32216;SDS011;67098;51.140;4.088;2023-03-17T09:13:26;8.73;;;3.33;;
32216;SDS011;67098;51.140;4.088;2023-03-17T09:15:52;6.07;;;3.17;;
32216;SDS011;67098;51.140;4.088;2023-03-17T09:18:18;7.60;;;3.20;;
32216;SDS011;67098;51.140;4.088;2023-03-17T09:20:44;9.15;;;3.22;;
32216;SDS011;67098;51.140;4.088;2023-03-17T09:23:11;14.18;;;3.38;;
32216;SDS011;67098;51.140;4.088;2023-03-17T09:25:38;10.82;;;3.75;;
32216;SDS011;67098;51.140;4.088;2023-03-17T09:28:06;9.60;;;3.10;;
32216;SDS011;67098;51.140;4.088;2023-03-17T09:30:33;10.27;;;3.60;;
32216;SDS011;67098;51.140;4.088;2023-03-17T09:32:59;9.65;;;3.00;;
32216;SDS011;67098;51.140;4.088;2023-03-17T09:35:25;9.80;;;3.80;;
32216;SDS011;67098;51.140;4.088;2023-03-17T09:37:55;6.63;;;2.97;;
32216;SDS011;67098;51.140;4.088;2023-03-17T09:40:23;9.00;;;3.53;;
32216;SDS011;67098;51.140;4.088;2023-03-17T09:45:48;10.05;;;3.05;;
32216;SDS011;67098;51.140;4.088;2023-03-17T09:51:15;9.85;;;3.55;;
32216;SDS011;67098;51.140;4.088;2023-03-17T09:53:50;7.68;;;3.50;;
32216;SDS011;67098;51.140;4.088;2023-03-17T09:56:24;8.73;;;3.10;;
32216;SDS011;67098;51.140;4.088;2023-03-17T09:58:55;9.35;;;3.17;;
32216;SDS011;67098;51.140;4.088;2023-03-17T10:03:50;8.75;;;3.40;;
32216;SDS011;67098;51.140;4.088;2023-03-17T10:08:56;10.23;;;3.53;;
32216;SDS011;67098;51.140;4.088;2023-03-17T10:11:40;9.82;;;3.10;;
32216;SDS011;67098;51.140;4.088;2023-03-17T10:16:51;8.98;;;3.65;;
32216;SDS011;67098;51.140;4.088;2023-03-17T10:19:27;11.38;;;3.22;;
32216;SDS011;67098;51.140;4.088;2023-03-17T10:22:00;10.55;;;3.75;;
32216;SDS011;67098;51.140;4.088;2023-03-17T10:24:29;8.30;;;3.47;;
32216;SDS011;67098;51.140;4.088;2023-03-17T10:26:58;8.07;;;3.50;;
32216;SDS011;67098;51.140;4.088;2023-03-17T10:31:56;5.22;;;2.95;;
32216;SDS011;67098;51.140;4.088;2023-03-17T10:34:23;10.05;;;3.20;;
32216;SDS011;67098;51.140;4.088;2023-03-17T10:37:00;10.55;;;3.42;;
32216;SDS011;67098;51.140;4.088;2023-03-17T10:39:29;9.80;;;3.40;;
32216;SDS011;67098;51.140;4.088;2023-03-17T10:41:57;8.10;;;3.40;;
32216;SDS011;67098;51.140;4.088;2023-03-17T10:46:57;9.10;;;3.85;;
32216;SDS011;67098;51.140;4.088;2023-03-17T10:49:23;8.95;;;4.00;;
32216;SDS011;67098;51.140;4.088;2023-03-17T10:51:51;9.80;;;3.38;;
32216;SDS011;67098;51.140;4.088;2023-03-17T10:54:18;7.13;;;3.42;;
32216;SDS011;67098;51.140;4.088;2023-03-17T10:56:45;7.85;;;2.80;;
32216;SDS011;67098;51.140;4.088;2023-03-17T10:59:21;10.55;;;3.05;;
32216;SDS011;67098;51.140;4.088;2023-03-17T11:01:53;6.60;;;2.85;;
32216;SDS011;67098;51.140;4.088;2023-03-17T11:04:35;10.60;;;3.85;;
32216;SDS011;67098;51.140;4.088;2023-03-17T11:07:15;11.30;;;3.33;;
32216;SDS011;67098;51.140;4.088;2023-03-17T11:09:46;9.63;;;3.38;;
32216;SDS011;67098;51.140;4.088;2023-03-17T11:12:28;9.02;;;3.25;;
32216;SDS011;67098;51.140;4.088;2023-03-17T11:15:03;9.52;;;3.00;;
32216;SDS011;67098;51.140;4.088;2023-03-17T11:20:30;9.25;;;4.20;;
32216;SDS011;67098;51.140;4.088;2023-03-17T11:23:08;9.20;;;3.10;;
32216;SDS011;67098;51.140;4.088;2023-03-17T11:26:00;7.25;;;3.10;;
32216;SDS011;67098;51.140;4.088;2023-03-17T11:28:36;14.27;;;6.18;;
32216;SDS011;67098;51.140;4.088;2023-03-17T11:39:26;12.77;;;3.70;;
32216;SDS011;67098;51.140;4.088;2023-03-17T11:42:16;8.27;;;3.40;;
32216;SDS011;67098;51.140;4.088;2023-03-17T11:50:00;10.02;;;3.38;;
32216;SDS011;67098;51.140;4.088;2023-03-17T11:55:29;8.40;;;3.30;;
32216;SDS011;67098;51.140;4.088;2023-03-17T11:58:00;6.68;;;2.85;;
32216;SDS011;67098;51.140;4.088;2023-03-17T12:05:45;8.45;;;3.13;;
32216;SDS011;67098;51.140;4.088;2023-03-17T12:11:20;13.68;;;3.22;;
32216;SDS011;67098;51.140;4.088;2023-03-17T12:16:32;8.73;;;3.42;;
32216;SDS011;67098;51.140;4.088;2023-03-17T12:19:15;7.10;;;3.33;;
32216;SDS011;67098;51.140;4.088;2023-03-17T12:21:53;7.75;;;3.42;;
32216;SDS011;67098;51.140;4.088;2023-03-17T12:27:10;10.80;;;3.50;;
32216;SDS011;67098;51.140;4.088;2023-03-17T12:32:23;7.43;;;3.28;;
32216;SDS011;67098;51.140;4.088;2023-03-17T12:35:22;7.82;;;3.70;;
32216;SDS011;67098;51.140;4.088;2023-03-17T12:38:03;9.63;;;3.58;;
32216;SDS011;67098;51.140;4.088;2023-03-17T12:54:29;11.63;;;3.72;;
32216;SDS011;67098;51.140;4.088;2023-03-17T12:57:01;13.82;;;3.38;;
32216;SDS011;67098;51.140;4.088;2023-03-17T12:59:30;8.85;;;3.53;;
32216;SDS011;67098;51.140;4.088;2023-03-17T13:02:11;7.50;;;3.33;;
32216;SDS011;67098;51.140;4.088;2023-03-17T13:04:48;7.63;;;2.88;;
32216;SDS011;67098;51.140;4.088;2023-03-17T13:07:22;7.15;;;2.70;;
32216;SDS011;67098;51.140;4.088;2023-03-17T13:15:49;7.68;;;3.03;;
32216;SDS011;67098;51.140;4.088;2023-03-17T13:17:51;4.60;;;2.53;;
32216;SDS011;67098;51.140;4.088;2023-03-17T13:20:41;7.13;;;2.97;;
32216;SDS011;67098;51.140;4.088;2023-03-17T13:23:16;9.75;;;3.15;;
32216;SDS011;67098;51.140;4.088;2023-03-17T13:25:48;7.00;;;3.30;;
32216;SDS011;67098;51.140;4.088;2023-03-17T13:28:38;7.38;;;3.13;;
32216;SDS011;67098;51.140;4.088;2023-03-17T13:31:08;10.35;;;3.20;;
32216;SDS011;67098;51.140;4.088;2023-03-17T13:33:55;7.47;;;3.33;;
32216;SDS011;67098;51.140;4.088;2023-03-17T13:42:27;13.98;;;3.60;;
32216;SDS011;67098;51.140;4.088;2023-03-17T13:45:22;7.18;;;3.40;;
32216;SDS011;67098;51.140;4.088;2023-03-17T13:47:49;6.55;;;2.97;;
32216;SDS011;67098;51.140;4.088;2023-03-17T13:52:46;7.82;;;2.95;;
32216;SDS011;67098;51.140;4.088;2023-03-17T13:57:43;9.40;;;3.67;;
32216;SDS011;67098;51.140;4.088;2023-03-17T14:00:24;9.80;;;3.00;;
32216;SDS011;67098;51.140;4.088;2023-03-17T14:02:56;4.72;;;2.35;;
32216;SDS011;67098;51.140;4.088;2023-03-17T14:05:28;6.93;;;2.55;;
32216;SDS011;67098;51.140;4.088;2023-03-17T14:08:00;9.30;;;2.88;;
32216;SDS011;67098;51.140;4.088;2023-03-17T14:10:51;5.53;;;2.15;;
32216;SDS011;67098;51.140;4.088;2023-03-17T14:15:54;4.97;;;2.15;;
32216;SDS011;67098;51.140;4.088;2023-03-17T14:18:34;7.97;;;2.35;;
32216;SDS011;67098;51.140;4.088;2023-03-17T14:21:02;7.18;;;2.15;;
32216;SDS011;67098;51.140;4.088;2023-03-17T14:23:30;7.85;;;3.00;;
32216;SDS011;67098;51.140;4.088;2023-03-17T14:25:59;6.22;;;2.45;;
32216;SDS011;67098;51.140;4.088;2023-03-17T14:28:31;5.63;;;2.40;;
32216;SDS011;67098;51.140;4.088;2023-03-17T14:33:29;8.38;;;2.60;;
32216;SDS011;67098;51.140;4.088;2023-03-17T14:36:06;9.90;;;3.13;;
32216;SDS011;67098;51.140;4.088;2023-03-17T14:38:37;4.10;;;2.47;;
32216;SDS011;67098;51.140;4.088;2023-03-17T14:43:38;5.60;;;2.40;;
32216;SDS011;67098;51.140;4.088;2023-03-17T14:46:05;5.75;;;2.20;;
32216;SDS011;67098;51.140;4.088;2023-03-17T14:48:36;6.53;;;2.92;;
32216;SDS011;67098;51.140;4.088;2023-03-17T14:51:08;10.80;;;2.50;;
32216;SDS011;67098;51.140;4.088;2023-03-17T14:53:42;5.65;;;2.50;;
32216;SDS011;67098;51.140;4.088;2023-03-17T14:56:10;6.60;;;2.05;;
32216;SDS011;67098;51.140;4.088;2023-03-17T14:58:42;7.45;;;2.47;;
32216;SDS011;67098;51.140;4.088;2023-03-17T15:03:57;6.20;;;2.40;;
32216;SDS011;67098;51.140;4.088;2023-03-17T15:06:29;7.97;;;2.75;;
32216;SDS011;67098;51.140;4.088;2023-03-17T15:08:58;5.55;;;2.65;;
32216;SDS011;67098;51.140;4.088;2023-03-17T15:11:39;9.13;;;2.97;;
32216;SDS011;67098;51.140;4.088;2023-03-17T15:17:00;11.88;;;2.78;;
32216;SDS011;67098;51.140;4.088;2023-03-17T15:19:28;5.55;;;2.60;;
32216;SDS011;67098;51.140;4.088;2023-03-17T15:27:43;4.65;;;1.95;;
32216;SDS011;67098;51.140;4.088;2023-03-17T15:30:09;5.80;;;2.65;;
32216;SDS011;67098;51.140;4.088;2023-03-17T15:32:36;9.30;;;2.95;;
32216;SDS011;67098;51.140;4.088;2023-03-17T15:35:02;8.75;;;2.83;;
32216;SDS011;67098;51.140;4.088;2023-03-17T15:37:29;5.40;;;2.55;;
32216;SDS011;67098;51.140;4.088;2023-03-17T15:39:56;7.88;;;3.00;;
32216;SDS011;67098;51.140;4.088;2023-03-17T15:42:24;8.63;;;3.03;;
32216;SDS011;67098;51.140;4.088;2023-03-17T15:44:55;6.80;;;2.53;;
32216;SDS011;67098;51.140;4.088;2023-03-17T15:47:21;9.38;;;2.55;;
32216;SDS011;67098;51.140;4.088;2023-03-17T15:49:50;10.90;;;3.45;;
32216;SDS011;67098;51.140;4.088;2023-03-17T15:52:22;8.80;;;3.00;;
32216;SDS011;67098;51.140;4.088;2023-03-17T15:54:50;10.23;;;2.42;;
32216;SDS011;67098;51.140;4.088;2023-03-17T15:57:20;10.93;;;2.63;;
32216;SDS011;67098;51.140;4.088;2023-03-17T15:59:46;13.77;;;3.15;;
32216;SDS011;67098;51.140;4.088;2023-03-17T16:04:49;9.82;;;3.45;;
32216;SDS011;67098;51.140;4.088;2023-03-17T16:07:15;10.70;;;2.90;;
32216;SDS011;67098;51.140;4.088;2023-03-17T16:09:41;9.60;;;3.15;;
32216;SDS011;67098;51.140;4.088;2023-03-17T16:12:10;9.50;;;3.58;;
32216;SDS011;67098;51.140;4.088;2023-03-17T16:14:36;8.75;;;3.20;;
32216;SDS011;67098;51.140;4.088;2023-03-17T16:17:02;9.93;;;3.55;;
32216;SDS011;67098;51.140;4.088;2023-03-17T16:19:28;13.80;;;3.40;;
32216;SDS011;67098;51.140;4.088;2023-03-17T16:21:54;10.85;;;2.80;;
32216;SDS011;67098;51.140;4.088;2023-03-17T16:24:21;12.07;;;2.72;;
32216;SDS011;67098;51.140;4.088;2023-03-17T16:26:48;8.27;;;2.75;;
32216;SDS011;67098;51.140;4.088;2023-03-17T16:29:15;7.82;;;3.42;;
32216;SDS011;67098;51.140;4.088;2023-03-17T16:31:42;9.93;;;3.97;;
32216;SDS011;67098;51.140;4.088;2023-03-17T16:34:14;9.30;;;3.38;;
32216;SDS011;67098;51.140;4.088;2023-03-17T16:36:42;16.33;;;3.60;;
32216;SDS011;67098;51.140;4.088;2023-03-17T16:39:15;8.20;;;3.38;;
32216;SDS011;67098;51.140;4.088;2023-03-17T16:41:43;10.50;;;3.42;;
32216;SDS011;67098;51.140;4.088;2023-03-17T16:44:11;13.13;;;3.92;;
32216;SDS011;67098;51.140;4.088;2023-03-17T16:46:37;5.82;;;3.08;;
32216;SDS011;67098;51.140;4.088;2023-03-17T16:49:03;9.70;;;3.97;;
32216;SDS011;67098;51.140;4.088;2023-03-17T16:51:30;12.65;;;4.10;;